Time;durP1;ratioP1;P1;durP2;ratioP2;P2;SDS_P1;SDS_P2;PMS_P1;PMS_P2;Temp;Humidity;BMP_temperature;BMP_pressure;BME280_temperature;BME280_humidity;BME280_pressure;Samples;Min_cycle;Max_cycle;Signal;HPM_P1;HPM_P2
2022/10/17 00:01:07;;;;;;;2.97;2.42;;;;;;;14.97;76.58;100464.78;5051936;28;20080;-53
2022/10/17 00:03:38;;;;;;;2.90;2.40;;;;;;;14.96;77.56;100465.94;5049680;28;20053;-50
2022/10/17 00:06:06;;;;;;;4.05;2.47;;;;;;;14.92;77.61;100463.00;5052101;28;20064;-54
2022/10/17 00:08:34;;;;;;;3.10;2.30;;;;;;;14.93;77.19;100464.66;5052686;28;20057;-52
2022/10/17 00:11:04;;;;;;;5.00;3.03;;;;;;;14.95;76.36;100473.56;5056122;28;20481;-53
2022/10/17 00:13:31;;;;;;;;;;;;;;;14.92;77.45;100474.22;5056442;28;20064;-51
2022/10/17 00:15:58;;;;;;;6.30;2.42;;;;;;;14.88;76.58;100469.66;5056045;28;20288;-54
2022/10/17 00:18:26;;;;;;;3.85;2.60;;;;;;;14.85;77.00;100465.56;5054975;28;20063;-50
2022/10/17 00:20:55;;;;;;;4.82;2.38;;;;;;;14.87;76.69;100470.81;5056147;28;20057;-52
2022/10/17 00:23:22;;;;;;;4.43;2.60;;;;;;;14.87;77.37;100463.22;5054454;28;20053;-51
2022/10/17 00:25:58;;;;;;;8.75;3.00;;;;;;;14.86;77.09;100464.38;5054916;28;20527;-51
2022/10/17 00:28:25;;;;;;;7.57;2.90;;;;;;;14.89;76.65;100468.47;5065124;28;20243;-52
2022/10/17 00:30:56;;;;;;;6.35;2.65;;;;;;;14.88;76.68;100475.25;5075750;28;20487;-52
2022/10/17 00:33:23;;;;;;;5.53;3.38;;;;;;;14.83;78.10;100465.06;5089474;28;20075;-54
2022/10/17 00:35:50;;;;;;;4.88;3.00;;;;;;;14.82;77.02;100463.41;5095893;28;20068;-50
2022/10/17 00:38:19;;;;;;;7.13;3.22;;;;;;;14.82;78.42;100464.25;5091063;28;20060;-51
2022/10/17 00:40:46;;;;;;;4.80;3.20;;;;;;;14.82;77.47;100463.41;5077645;28;20056;-50
2022/10/17 00:43:17;;;;;;;4.68;2.97;;;;;;;14.84;77.27;100461.09;5095532;28;20075;-52
2022/10/17 00:45:44;;;;;;;5.25;3.45;;;;;;;14.86;78.10;100457.94;5076382;28;20064;-52
2022/10/17 00:48:12;;;;;;;4.70;2.95;;;;;;;14.85;78.35;100459.13;5075252;28;20056;-52
2022/10/17 00:50:44;;;;;;;5.22;3.20;;;;;;;14.85;77.42;100459.13;5075258;28;20063;-53
2022/10/17 00:53:11;;;;;;;6.22;2.88;;;;;;;14.84;78.01;100451.88;5074869;28;20481;-52
2022/10/17 00:55:48;;;;;;;3.42;3.03;;;;;;;14.85;77.55;100459.94;5073860;28;20060;-53
2022/10/17 00:58:16;;;;;;;7.10;3.53;;;;;;;14.87;77.40;100451.19;5075065;28;20064;-54
2022/10/17 01:00:46;;;;;;;5.07;3.03;;;;;;;14.85;78.26;100457.13;5074932;28;20052;-53
2022/10/17 01:03:13;;;;;;;6.57;3.08;;;;;;;14.86;77.04;100447.56;5075307;28;20057;-52
2022/10/17 01:05:42;;;;;;;6.70;3.65;;;;;;;14.86;77.16;100452.34;5074915;28;20484;-52
2022/10/17 01:08:10;;;;;;;4.70;3.17;;;;;;;14.85;76.92;100456.31;5073137;28;20045;-50
2022/10/17 01:10:54;;;;;;;4.68;3.20;;;;;;;14.84;76.91;100449.88;5074925;28;20060;-52
2022/10/17 01:13:30;;;;;;;3.70;2.60;;;;;;;14.85;77.47;100457.13;5074879;28;20056;-52
2022/10/17 01:16:09;;;;;;;3.92;3.00;;;;;;;14.82;76.49;100453.03;5074854;28;20052;-51
2022/10/17 01:18:49;;;;;;;;;;;;;;;14.77;76.92;100453.25;5075505;28;20413;-54
2022/10/17 01:21:39;;;;;;;3.72;2.80;;;;;;;14.77;76.50;100449.63;5074545;28;19920;-51
2022/10/17 01:24:42;;;;;;;6.43;4.10;;;;;;;14.74;77.76;100441.88;5071528;28;20057;-52
2022/10/17 01:27:47;;;;;;;6.95;3.60;;;;;;;14.74;78.23;100445.53;5074785;28;20103;-52
2022/10/17 01:30:44;;;;;;;5.45;3.65;;;;;;;14.75;78.43;100449.16;5074074;28;20060;-53
2022/10/17 01:33:17;;;;;;;6.15;3.40;;;;;;;14.75;78.39;100440.72;5054879;28;20053;-49
2022/10/17 01:35:52;;;;;;;4.15;3.38;;;;;;;14.74;78.84;100436.28;5059947;28;20056;-53
2022/10/17 01:38:24;;;;;;;6.18;3.72;;;;;;;14.75;77.64;100440.72;5074551;28;20060;-53
2022/10/17 01:40:58;;;;;;;6.93;3.10;;;;;;;14.75;78.43;100446.34;5077279;28;20408;-52
2022/10/17 01:43:32;;;;;;;4.47;3.50;;;;;;;14.76;77.94;100447.97;5094419;28;20059;-50
2022/10/17 01:46:06;;;;;;;4.32;3.30;;;;;;;14.75;78.48;100446.34;5094484;28;20052;-54
2022/10/17 01:48:37;;;;;;;4.18;3.60;;;;;;;14.73;79.04;100443.88;5092394;28;20055;-50
2022/10/17 01:51:10;;;;;;;5.60;3.63;;;;;;;14.76;79.17;100454.41;5054361;28;20485;-53
2022/10/17 01:53:41;;;;;;;4.00;3.47;;;;;;;14.80;78.35;100448.91;5054413;28;20048;-53
2022/10/17 01:56:11;;;;;;;4.78;4.15;;;;;;;14.77;79.17;100444.81;5073930;28;20052;-51
2022/10/17 01:58:42;;;;;;;4.00;3.60;;;;;;;14.81;78.97;100444.97;5074049;28;20424;-51
2022/10/17 02:01:12;;;;;;;4.53;3.67;;;;;;;14.82;78.73;100430.63;5074292;28;20491;-50
2022/10/17 02:03:43;;;;;;;6.82;4.57;;;;;;;14.84;79.29;100432.25;5072240;28;20064;-51
2022/10/17 02:06:11;;;;;;;5.40;4.10;;;;;;;14.86;79.08;100427.09;5073891;28;20492;-52
2022/10/17 02:08:42;;;;;;;6.13;4.32;;;;;;;14.90;79.75;100431.66;5073793;28;20389;-53
2022/10/17 02:11:14;;;;;;;5.78;4.38;;;;;;;14.95;80.33;100437.09;5073976;28;20071;-53
2022/10/17 02:13:59;;;;;;;7.40;4.40;;;;;;;14.99;79.55;100426.81;5073768;28;20063;-52
2022/10/17 02:16:35;;;;;;;4.60;3.85;;;;;;;14.98;79.90;100430.78;5074062;28;20056;-51
2022/10/17 02:19:18;;;;;;;5.22;3.90;;;;;;;14.93;79.63;100421.75;5071552;28;20052;-52
2022/10/17 02:21:51;;;;;;;5.55;3.80;;;;;;;14.92;79.01;100425.72;5073502;28;20060;-50
2022/10/17 02:24:25;;;;;;;4.90;4.10;;;;;;;14.92;79.63;100434.13;5073676;28;20412;-50
2022/10/17 02:26:59;;;;;;;5.88;4.05;;;;;;;14.90;79.33;100420.47;5073804;28;20057;-51
2022/10/17 02:29:31;;;;;;;5.72;3.85;;;;;;;14.93;79.22;100408.56;5073639;28;20075;-58
2022/10/17 02:32:04;;;;;;;4.78;4.18;;;;;;;14.95;79.68;100417.44;5072964;28;20064;-60
2022/10/17 02:34:36;;;;;;;6.50;4.68;;;;;;;14.98;79.26;100416.75;5075011;28;20052;-60
2022/10/17 02:37:07;;;;;;;5.40;4.85;;;;;;;14.99;80.46;100418.41;5073826;28;20061;-60
2022/10/17 02:39:36;;;;;;;5.45;4.85;;;;;;;15.02;79.59;100420.50;5073100;28;20060;-60
2022/10/17 02:42:14;;;;;;;5.47;4.28;;;;;;;15.05;79.58;100421.78;5071952;28;20052;-60
2022/10/17 02:44:44;;;;;;;5.13;4.35;;;;;;;15.07;79.31;100413.03;5073372;28;20052;-59
2022/10/17 02:47:21;;;;;;;6.38;4.88;;;;;;;15.10;79.76;100409.53;5073197;28;20053;-60
2022/10/17 02:49:52;;;;;;;5.25;4.43;;;;;;;15.14;81.00;100416.91;5070799;28;20060;-59
2022/10/17 02:52:26;;;;;;;7.45;5.30;;;;;;;15.18;79.99;100414.22;5073498;28;20060;-60
2022/10/17 02:55:00;;;;;;;7.28;5.43;;;;;;;15.15;80.63;100418.53;5072797;28;20056;-60
2022/10/17 02:57:30;;;;;;;5.75;4.25;;;;;;;15.16;80.40;100408.97;5072886;28;20139;-60
2022/10/17 03:00:01;;;;;;;6.25;4.35;;;;;;;15.13;80.36;100411.66;5073173;28;20056;-60
2022/10/17 03:02:38;;;;;;;7.07;4.30;;;;;;;15.18;80.50;100406.66;5073226;28;20056;-60
2022/10/17 03:05:07;;;;;;;5.72;4.35;;;;;;;15.19;80.67;100405.47;5071531;28;20049;-60
2022/10/17 03:07:34;;;;;;;6.20;4.72;;;;;;;15.24;81.13;100415.63;5072927;28;20057;-59
2022/10/17 03:10:01;;;;;;;8.27;5.55;;;;;;;15.26;81.49;100410.50;5072840;28;20056;-60
2022/10/17 03:12:29;;;;;;;7.50;5.13;;;;;;;15.33;80.79;100413.56;5073043;28;20057;-60
2022/10/17 03:14:56;;;;;;;5.75;4.93;;;;;;;15.32;81.88;100419.53;5072469;28;20404;-59
2022/10/17 03:17:23;;;;;;;5.07;4.47;;;;;;;15.34;81.32;100412.38;5072700;28;20060;-60
2022/10/17 03:19:52;;;;;;;7.03;4.93;;;;;;;15.40;81.24;100418.59;5070873;28;20067;-60
2022/10/17 03:22:19;;;;;;;8.55;5.43;;;;;;;15.48;82.58;100422.50;5072776;28;20064;-60
2022/10/17 03:24:46;;;;;;;6.32;4.88;;;;;;;15.57;83.03;100420.38;5072465;28;20394;-59
2022/10/17 03:27:13;;;;;;;5.93;4.50;;;;;;;15.63;82.75;100413.38;5072912;28;20060;-59
2022/10/17 03:29:41;;;;;;;7.47;5.13;;;;;;;15.70;82.82;100410.78;5071996;28;20848;-59
2022/10/17 03:32:08;;;;;;;6.22;4.93;;;;;;;15.77;83.30;100422.31;5072356;28;20930;-60
2022/10/17 03:34:35;;;;;;;5.50;5.00;;;;;;;15.91;83.36;100409.88;5070213;28;20531;-60
2022/10/17 03:37:04;;;;;;;5.88;4.88;;;;;;;16.04;82.73;100417.13;5072295;28;20048;-60
2022/10/17 03:39:31;;;;;;;6.88;4.85;;;;;;;16.19;83.87;100419.22;5072258;28;20089;-60
2022/10/17 03:41:59;;;;;;;5.82;4.40;;;;;;;16.44;83.60;100430.38;5084927;28;20059;-60
2022/10/17 03:44:26;;;;;;;5.30;4.10;;;;;;;16.66;83.16;100428.25;5092198;28;20443;-60
2022/10/17 03:46:53;;;;;;;4.55;4.10;;;;;;;16.82;82.42;100429.97;5085842;28;20056;-60
2022/10/17 03:49:20;;;;;;;5.65;3.72;;;;;;;16.98;81.54;100421.56;5079806;28;20052;-58
2022/10/17 03:51:47;;;;;;;6.00;3.72;;;;;;;17.17;80.79;100418.06;5088995;28;20059;-60
2022/10/17 03:54:16;;;;;;;4.93;3.88;;;;;;;17.30;80.20;100415.16;5071883;28;20067;-60
2022/10/17 03:56:43;;;;;;;5.13;3.90;;;;;;;17.39;79.53;100413.81;5072869;28;20055;-59
2022/10/17 03:59:13;;;;;;;5.43;3.67;;;;;;;17.55;78.44;100427.09;5071637;28;20504;-59
2022/10/17 04:01:41;;;;;;;6.35;3.95;;;;;;;17.61;78.22;100422.81;5083267;28;20052;-59
2022/10/17 04:04:08;;;;;;;5.22;3.97;;;;;;;17.73;77.46;100428.34;5070790;28;20607;-59
2022/10/17 04:06:36;;;;;;;5.53;3.58;;;;;;;17.76;76.85;100430.44;5073006;28;20059;-60
2022/10/17 04:09:04;;;;;;;9.85;4.38;;;;;;;17.77;76.24;100432.09;5092226;28;20060;-57
2022/10/17 04:11:33;;;;;;;5.30;4.00;;;;;;;17.79;76.23;100438.19;5088752;28;20059;-60
2022/10/17 04:14:00;;;;;;;8.45;3.75;;;;;;;17.75;75.67;100436.44;5092241;28;20063;-60
2022/10/17 04:16:28;;;;;;;7.28;4.20;;;;;;;17.72;75.44;100443.59;5077240;28;20428;-59
2022/10/17 04:18:56;;;;;;;6.35;4.38;;;;;;;17.68;75.76;100442.72;5083051;28;20515;-60
2022/10/17 04:21:24;;;;;;;6.40;3.75;;;;;;;17.63;76.00;100435.34;5075345;28;20056;-60
2022/10/17 04:23:54;;;;;;;5.63;3.97;;;;;;;17.64;76.23;100444.63;5071571;28;20064;-60
2022/10/17 04:26:22;;;;;;;6.10;3.58;;;;;;;17.69;76.63;100443.53;5071764;28;20049;-59
2022/10/17 04:28:51;;;;;;;5.97;3.75;;;;;;;17.76;75.72;100438.06;5071031;28;20060;-59
2022/10/17 04:31:18;;;;;;;5.80;3.72;;;;;;;17.79;75.28;100440.19;5069364;28;20052;-60
2022/10/17 04:33:47;;;;;;;5.07;3.60;;;;;;;17.84;75.70;100434.28;5054690;28;20409;-59
2022/10/17 04:36:16;;;;;;;7.82;3.83;;;;;;;17.83;75.00;100432.66;5037268;28;20485;-59
2022/10/17 04:38:44;;;;;;;5.47;3.88;;;;;;;17.85;75.07;100435.94;5044600;28;20061;-59
2022/10/17 04:41:13;;;;;;;4.68;3.70;;;;;;;17.80;75.23;100436.97;5055596;28;20060;-60
2022/10/17 04:43:40;;;;;;;6.10;3.60;;;;;;;17.88;75.28;100432.38;5070701;28;20063;-59
2022/10/17 04:46:11;;;;;;;5.07;3.47;;;;;;;17.94;74.39;100438.56;5043947;28;20052;-59
2022/10/17 04:48:39;;;;;;;5.00;3.47;;;;;;;18.08;74.59;100433.28;5051414;28;20489;-60
2022/10/17 04:51:10;;;;;;;4.20;3.40;;;;;;;18.11;74.35;100426.88;5051156;28;20076;-60
2022/10/17 04:53:39;;;;;;;6.10;3.80;;;;;;;18.18;73.93;100429.84;5051897;28;20053;-60
2022/10/17 04:56:11;;;;;;;5.45;3.08;;;;;;;18.25;73.29;100438.50;5063107;28;20401;-59
2022/10/17 04:58:39;;;;;;;4.88;3.63;;;;;;;18.34;73.37;100452.38;5058379;28;20057;-59
2022/10/17 05:01:07;;;;;;;7.10;3.70;;;;;;;18.43;72.63;100463.47;5069471;28;20068;-58
2022/10/17 05:03:36;;;;;;;7.25;4.18;;;;;;;18.46;72.66;100460.72;5069158;28;20536;-59
2022/10/17 05:06:06;;;;;;;4.63;3.40;;;;;;;18.49;72.23;100459.16;5066674;28;20048;-59
2022/10/17 05:08:33;;;;;;;3.83;3.17;;;;;;;18.46;72.28;100459.91;5058913;28;20049;-60
2022/10/17 05:11:01;;;;;;;4.88;3.38;;;;;;;18.49;71.85;100447.88;5065441;28;20072;-59
2022/10/17 05:13:28;;;;;;;3.95;3.25;;;;;;;18.46;72.34;100448.63;5071567;28;20499;-60
2022/10/17 05:15:59;;;;;;;7.05;3.60;;;;;;;18.50;72.19;100443.06;5066572;28;20053;-59
2022/10/17 05:18:26;;;;;;;6.05;3.38;;;;;;;18.49;71.48;100445.06;5070112;28;20057;-58
2022/10/17 05:20:55;;;;;;;10.48;3.88;;;;;;;18.58;71.88;100445.69;5070863;28;20060;-58
2022/10/17 05:23:23;;;;;;;4.60;3.08;;;;;;;18.63;70.84;100448.22;5052000;28;20061;-58
2022/10/17 05:25:54;;;;;;;4.57;2.80;;;;;;;18.66;70.41;100447.44;5041350;28;20056;-59
2022/10/17 05:28:21;;;;;;;4.57;3.42;;;;;;;18.78;70.75;100452.19;5044644;28;20057;-59
2022/10/17 05:30:49;;;;;;;8.00;3.40;;;;;;;18.81;70.52;100459.88;5061380;28;20059;-60
2022/10/17 05:33:16;;;;;;;4.22;3.33;;;;;;;18.81;69.77;100476.00;5071711;28;20063;-59
2022/10/17 05:35:43;;;;;;;5.78;3.08;;;;;;;18.91;69.40;100475.41;5077030;28;20059;-59
2022/10/17 05:38:12;;;;;;;3.55;3.08;;;;;;;18.93;69.32;100467.41;5088079;28;20488;-59
2022/10/17 05:40:39;;;;;;;5.10;2.97;;;;;;;18.91;69.52;100466.97;5087859;28;20497;-59
2022/10/17 05:43:06;;;;;;;5.95;3.47;;;;;;;18.91;70.09;100478.25;5094395;28;20067;-60
2022/10/17 05:45:34;;;;;;;5.55;3.33;;;;;;;18.98;69.02;100481.25;5084413;28;20485;-59
2022/10/17 05:48:01;;;;;;;4.80;3.20;;;;;;;18.95;68.74;100473.50;5074197;28;20068;-59
2022/10/17 05:50:28;;;;;;;7.50;3.17;;;;;;;18.96;69.23;100466.69;5073020;28;20512;-57
2022/10/17 05:52:56;;;;;;;5.20;3.20;;;;;;;18.98;69.35;100469.94;5073042;28;20059;-59
2022/10/17 05:55:24;;;;;;;5.63;3.30;;;;;;;19.04;68.23;100474.06;5073551;28;20408;-59
2022/10/17 05:57:52;;;;;;;4.20;3.10;;;;;;;19.11;69.08;100466.94;5070284;28;20053;-58
2022/10/17 06:00:20;;;;;;;11.73;3.60;;;;;;;19.12;68.50;100480.69;5054077;28;20448;-60
2022/10/17 06:02:48;;;;;;;5.03;3.70;;;;;;;18.96;68.98;100483.63;5057751;28;20049;-60
2022/10/17 06:05:15;;;;;;;4.65;2.90;;;;;;;19.09;68.84;100489.09;5072758;28;20163;-60
2022/10/17 06:07:43;;;;;;;4.50;3.00;;;;;;;19.11;68.41;100484.72;5073585;28;20056;-59
2022/10/17 06:10:12;;;;;;;6.10;3.22;;;;;;;19.24;67.99;100486.19;5071548;28;20052;-59
2022/10/17 06:12:40;;;;;;;4.03;2.80;;;;;;;19.27;67.19;100487.44;5054175;28;20056;-60
2022/10/17 06:15:09;;;;;;;5.83;3.60;;;;;;;19.27;67.71;100490.25;5053897;28;20412;-60
2022/10/17 06:17:37;;;;;;;5.93;3.55;;;;;;;19.28;67.67;100489.09;5054283;28;20495;-60
2022/10/17 06:20:05;;;;;;;4.65;3.10;;;;;;;19.32;67.59;100487.16;5073222;28;20072;-60
2022/10/17 06:22:33;;;;;;;5.68;3.17;;;;;;;19.40;67.00;100491.75;5073633;28;20056;-59
2022/10/17 06:25:00;;;;;;;4.30;3.03;;;;;;;19.54;66.23;100496.03;5073340;28;20067;-59
2022/10/17 06:27:27;;;;;;;5.50;3.08;;;;;;;19.53;66.52;100497.19;5070787;28;20049;-59
2022/10/17 06:29:56;;;;;;;6.68;3.13;;;;;;;19.58;65.64;100505.38;5073774;28;20064;-60
2022/10/17 06:32:23;;;;;;;6.97;3.03;;;;;;;19.69;65.98;100520.53;5073026;28;20072;-60
2022/10/17 06:34:50;;;;;;;5.53;3.05;;;;;;;19.62;66.43;100500.63;5073449;28;20470;-46
2022/10/17 06:37:22;;;;;;;6.15;3.03;;;;;;;19.62;66.14;100507.09;5056683;28;20743;-46
2022/10/17 06:39:50;;;;;;;5.70;2.60;;;;;;;19.63;65.70;100520.03;5056582;28;20060;-47
2022/10/17 06:42:17;;;;;;;5.10;2.72;;;;;;;19.70;66.41;100519.38;5058488;28;20064;-47
2022/10/17 06:44:45;;;;;;;4.15;3.00;;;;;;;19.84;66.09;100528.13;5063666;28;20424;-46
2022/10/17 06:47:13;;;;;;;4.00;3.03;;;;;;;19.97;64.44;100531.56;5058559;28;20059;-59
2022/10/17 06:49:40;;;;;;;4.22;3.10;;;;;;;20.09;64.24;100536.19;5064373;28;20060;-60
2022/10/17 06:52:08;;;;;;;4.32;2.97;;;;;;;20.28;63.42;100535.31;5057340;28;20543;-58
2022/10/17 06:54:35;;;;;;;5.50;3.05;;;;;;;20.23;63.16;100550.59;5061193;28;20061;-59
2022/10/17 06:57:02;;;;;;;6.65;3.00;;;;;;;20.34;63.59;100538.63;5062201;28;20083;-59
2022/10/17 06:59:30;;;;;;;4.78;2.95;;;;;;;20.36;62.56;100541.91;5062326;28;20867;-58
2022/10/17 07:01:57;;;;;;;4.47;2.60;;;;;;;20.58;62.41;100529.75;5064385;28;20052;-59
2022/10/17 07:04:26;;;;;;;3.85;3.10;;;;;;;20.49;62.97;100540.47;5063710;28;20061;-59
2022/10/17 07:06:53;;;;;;;5.60;3.13;;;;;;;20.68;62.16;100531.94;5065255;28;20086;-58
2022/10/17 07:09:21;;;;;;;6.30;3.15;;;;;;;20.69;62.05;100532.75;5072934;28;20156;-60
2022/10/17 07:11:48;;;;;;;7.03;2.95;;;;;;;21.04;60.83;100531.59;5071353;28;20064;-60
2022/10/17 07:14:16;;;;;;;3.75;2.60;;;;;;;21.18;60.67;100528.94;5072706;28;20057;-60
2022/10/17 07:16:44;;;;;;;6.47;2.83;;;;;;;21.56;59.20;100534.69;5072903;28;20066;-59
2022/10/17 07:19:11;;;;;;;8.35;3.40;;;;;;;21.59;58.97;100539.59;5077014;28;20056;-61
2022/10/17 07:21:40;;;;;;;4.35;2.78;;;;;;;22.04;58.07;100543.25;5086999;28;20056;-59
2022/10/17 07:24:07;;;;;;;5.57;3.00;;;;;;;22.23;57.00;100539.41;5074715;28;20048;-59
2022/10/17 07:26:34;;;;;;;5.07;2.60;;;;;;;22.48;56.28;100548.13;5081509;28;20057;-59
2022/10/17 07:29:01;;;;;;;5.65;2.60;;;;;;;22.74;55.20;100546.25;5067130;28;20063;-59
2022/10/17 07:31:29;;;;;;;5.47;2.70;;;;;;;22.85;55.20;100550.78;5075279;28;20052;-60
2022/10/17 07:33:56;;;;;;;3.75;2.30;;;;;;;22.89;55.04;100553.66;5062601;28;20060;-60
2022/10/17 07:36:23;;;;;;;3.65;2.78;;;;;;;23.39;53.60;100558.78;5067005;28;20060;-59
2022/10/17 07:38:52;;;;;;;8.45;3.13;;;;;;;24.01;52.87;100549.22;5051808;28;20421;-60
2022/10/17 07:41:20;;;;;;;6.63;2.45;;;;;;;24.73;49.81;100549.22;5057362;28;20053;-60
2022/10/17 07:43:47;;;;;;;6.72;2.75;;;;;;;25.21;49.33;100545.84;5046175;28;20052;-60
2022/10/17 07:46:14;;;;;;;5.32;2.67;;;;;;;25.67;48.03;100541.97;5052222;28;20065;-60
2022/10/17 07:48:41;;;;;;;4.95;2.20;;;;;;;25.88;46.96;100546.72;5056956;28;20049;-60
2022/10/17 07:51:10;;;;;;;4.60;2.58;;;;;;;26.41;45.78;100553.28;5053810;28;20060;-60
2022/10/17 07:53:38;;;;;;;3.83;2.17;;;;;;;26.95;44.69;100547.88;5064257;28;20045;-60
2022/10/17 07:56:08;;;;;;;5.32;2.60;;;;;;;26.99;44.10;100550.69;5066341;28;20498;-60
2022/10/17 07:58:37;;;;;;;5.07;2.65;;;;;;;26.42;45.43;100552.06;5047982;28;20401;-60
2022/10/17 08:01:06;;;;;;;5.93;2.87;;;;;;;25.87;46.50;100542.22;5032273;28;20057;-59
2022/10/17 08:03:34;;;;;;;3.53;2.42;;;;;;;25.58;47.16;100541.63;5058761;28;20061;-59
2022/10/17 08:06:02;;;;;;;4.60;2.30;;;;;;;25.26;48.34;100548.28;5067028;28;20049;-60
2022/10/17 08:08:30;;;;;;;7.40;2.95;;;;;;;24.85;48.85;100554.50;5061656;28;20513;-59
2022/10/17 08:11:03;;;;;;;4.50;2.85;;;;;;;24.47;50.21;100548.41;5068254;28;20507;-59
2022/10/17 08:13:31;;;;;;;5.05;2.63;;;;;;;24.35;50.20;100554.53;5055927;28;20052;-59
2022/10/17 08:16:00;;;;;;;4.45;2.83;;;;;;;24.13;50.72;100563.06;5051836;28;20072;-60
2022/10/17 08:18:27;;;;;;;5.27;2.67;;;;;;;24.25;51.00;100559.81;5066929;28;20397;-60
2022/10/17 08:20:55;;;;;;;5.13;2.70;;;;;;;24.60;50.39;100552.50;5054968;28;20508;-59
2022/10/17 08:23:22;;;;;;;7.85;2.67;;;;;;;24.94;48.87;100559.75;5071457;28;20060;-59
2022/10/17 08:25:49;;;;;;;3.25;2.30;;;;;;;25.00;48.78;100552.41;5051623;28;20052;-60
2022/10/17 08:28:16;;;;;;;6.63;2.47;;;;;;;25.38;47.42;100549.84;5062195;28;20436;-60
2022/10/17 08:30:45;;;;;;;6.75;2.53;;;;;;;25.75;46.24;100546.41;5058196;28;20057;-58
2022/10/17 08:33:12;;;;;;;4.38;2.35;;;;;;;26.32;45.25;100559.47;5065166;28;20056;-58
2022/10/17 08:35:39;;;;;;;6.70;3.03;;;;;;;26.76;44.00;100559.91;5077042;28;20061;-59
2022/10/17 08:38:07;;;;;;;4.90;2.38;;;;;;;27.54;42.52;100561.06;5079432;28;20052;-60
2022/10/17 08:40:34;;;;;;;4.00;2.17;;;;;;;28.76;40.13;100564.09;5074193;28;20114;-60
2022/10/17 08:43:22;;;;;;;4.57;2.10;;;;;;;29.42;38.44;100557.47;5074564;28;20057;-59
2022/10/17 08:45:54;;;;;;;6.40;2.50;;;;;;;29.32;38.72;100561.38;5071282;28;20048;-59
2022/10/17 08:48:25;;;;;;;4.15;2.20;;;;;;;29.26;38.09;100563.13;5090077;28;20056;-57
2022/10/17 08:50:56;;;;;;;6.63;2.65;;;;;;;29.29;38.38;100576.59;5073337;28;20052;-60
2022/10/17 08:53:29;;;;;;;5.85;2.40;;;;;;;29.64;37.58;100577.09;5078730;28;20424;-59
2022/10/17 08:55:57;;;;;;;4.65;2.03;;;;;;;29.26;37.55;100566.00;5079968;28;20056;-60
2022/10/17 08:58:28;;;;;;;4.57;2.33;;;;;;;30.17;37.07;100560.69;5095214;28;20060;-59
2022/10/17 09:01:04;;;;;;;3.85;2.15;;;;;;;31.07;34.93;100564.94;5073029;28;20064;-59
2022/10/17 09:03:58;;;;;;;3.72;1.90;;;;;;;31.54;35.01;100566.47;5081800;28;20420;-59
2022/10/17 09:06:28;;;;;;;4.30;2.10;;;;;;;31.70;33.47;100580.78;5075292;28;20493;-59
2022/10/17 09:09:08;;;;;;;5.35;2.45;;;;;;;31.89;33.25;100584.72;5077247;28;20052;-60
2022/10/17 09:11:51;;;;;;;4.00;2.15;;;;;;;31.81;33.34;100580.47;5078419;28;20044;-60
2022/10/17 09:14:43;;;;;;;4.07;1.80;;;;;;;32.68;32.61;100590.03;5095146;28;20056;-60
2022/10/17 09:17:20;;;;;;;3.15;2.00;;;;;;;33.06;32.37;100580.44;5092685;28;20435;-60
2022/10/17 09:19:57;;;;;;;4.63;2.33;;;;;;;33.64;30.89;100570.47;5088948;28;20055;-60
2022/10/17 09:22:30;;;;;;;3.95;1.77;;;;;;;33.24;31.72;100586.41;5077626;28;20520;-60
2022/10/17 09:25:02;;;;;;;4.75;2.20;;;;;;;32.29;33.09;100574.84;5076340;28;20059;-59
2022/10/17 09:27:36;;;;;;;5.97;2.20;;;;;;;32.27;33.46;100569.53;5087161;28;20492;-59
2022/10/17 09:30:23;;;;;;;4.93;2.08;;;;;;;31.49;34.11;100582.25;5088034;28;20421;-58
2022/10/17 09:32:52;;;;;;;5.07;2.15;;;;;;;32.10;33.32;100580.38;5087662;28;20063;-60
2022/10/17 09:35:22;;;;;;;4.90;2.50;;;;;;;32.36;32.83;100586.94;5090424;28;20067;-59
2022/10/17 09:37:50;;;;;;;3.47;1.83;;;;;;;31.96;33.61;100575.03;5077435;28;20048;-58
2022/10/17 09:40:22;;;;;;;5.55;2.25;;;;;;;32.61;32.46;100576.66;5078197;28;20052;-58
2022/10/17 09:42:50;;;;;;;4.43;2.15;;;;;;;32.59;32.75;100579.22;5088247;28;20404;-59
2022/10/17 09:45:23;;;;;;;7.00;2.33;;;;;;;32.37;32.45;100602.16;5081579;28;20485;-59
2022/10/17 09:47:59;;;;;;;4.25;2.60;;;;;;;33.68;31.01;100608.69;5073740;28;20052;-60
2022/10/17 09:50:28;;;;;;;8.13;2.90;;;;;;;33.30;31.21;100629.91;5094652;28;20056;-59
2022/10/17 09:52:58;;;;;;;4.40;2.05;;;;;;;33.99;30.57;100620.25;5078385;28;20064;-59
2022/10/17 09:55:34;;;;;;;4.75;2.30;;;;;;;34.90;28.46;100621.06;5075747;28;20056;-59
2022/10/17 09:58:03;;;;;;;4.82;2.10;;;;;;;33.87;29.94;100629.81;5082912;28;20059;-60
2022/10/17 10:00:33;;;;;;;5.47;2.08;;;;;;;34.04;30.16;100636.19;5082010;28;20229;-59
2022/10/17 10:03:13;;;;;;;5.53;2.53;;;;;;;33.11;30.97;100641.28;5077266;28;20060;-59
2022/10/17 10:05:41;;;;;;;3.80;2.10;;;;;;;33.25;30.91;100651.50;5093829;28;20060;-60
2022/10/17 10:08:14;;;;;;;4.82;1.95;;;;;;;32.42;32.91;100632.50;5077652;28;20059;-59
2022/10/17 10:10:43;;;;;;;3.92;2.10;;;;;;;32.10;33.86;100645.88;5074111;28;20056;-59
2022/10/17 10:13:19;;;;;;;2.65;2.05;;;;;;;30.43;35.84;100655.75;5077363;28;20071;-60
2022/10/17 10:15:48;;;;;;;6.38;2.25;;;;;;;29.67;36.63;100662.31;5069144;28;20504;-59
2022/10/17 10:18:30;;;;;;;;;;;;;;;29.41;38.17;100659.16;5069605;28;20060;-60
2022/10/17 10:21:08;;;;;;;4.82;2.38;;;;;;;28.66;39.15;100652.69;5075064;28;19920;-60
2022/10/17 10:23:38;;;;;;;3.78;2.30;;;;;;;27.56;41.33;100661.59;5082171;28;20291;-60
2022/10/17 10:26:17;;;;;;;3.40;1.88;;;;;;;27.12;42.53;100664.06;5089274;28;20060;-60
2022/10/17 10:28:51;;;;;;;;;;;;;;;26.54;43.70;100668.63;5078066;28;20052;-60
2022/10/17 10:31:27;;;;;;;5.53;2.40;;;;;;;26.08;44.90;100676.31;5086209;28;19920;-60
2022/10/17 10:33:54;;;;;;;5.03;2.40;;;;;;;25.77;45.92;100672.34;5068628;28;20369;-60
2022/10/17 10:36:23;;;;;;;6.60;2.50;;;;;;;25.58;46.57;100687.09;5073958;28;20404;-60
2022/10/17 10:38:57;;;;;;;3.70;2.33;;;;;;;25.25;48.06;100683.50;5075553;28;20044;-59
2022/10/17 10:41:26;;;;;;;5.25;2.22;;;;;;;25.21;48.05;100682.69;5076245;28;20507;-60
2022/10/17 10:43:55;;;;;;;3.90;2.50;;;;;;;25.04;48.63;100719.34;5076017;28;20060;-60
2022/10/17 10:46:26;;;;;;;5.15;2.70;;;;;;;24.85;49.02;100709.16;5073332;28;20067;-59
2022/10/17 10:48:57;;;;;;;4.88;2.40;;;;;;;24.80;48.52;100697.34;5070617;28;20060;-59
2022/10/17 10:51:32;;;;;;;5.85;2.35;;;;;;;25.01;48.74;100711.63;5072601;28;20056;-59
2022/10/17 10:54:05;;;;;;;3.85;2.25;;;;;;;24.75;48.91;100706.31;5073901;28;20052;-59
2022/10/17 10:56:38;;;;;;;5.97;2.30;;;;;;;24.80;49.28;100714.44;5072933;28;20500;-60
2022/10/17 10:59:13;;;;;;;3.72;2.38;;;;;;;24.96;48.67;100706.31;5070966;28;20052;-59
2022/10/17 11:01:48;;;;;;;3.83;2.42;;;;;;;24.99;49.02;100711.22;5069951;28;20061;-59
2022/10/17 11:04:24;;;;;;;4.30;2.30;;;;;;;25.04;49.02;100707.13;5071719;28;20416;-60
2022/10/17 11:07:00;;;;;;;5.53;2.60;;;;;;;24.52;49.67;100708.31;5074816;28;20059;-59
2022/10/17 11:09:37;;;;;;;7.57;3.15;;;;;;;24.47;50.23;100730.66;5079312;28;20048;-60
2022/10/17 11:12:11;;;;;;;8.88;2.33;;;;;;;24.36;50.70;100730.66;5085074;28;20071;-58
2022/10/17 11:14:45;;;;;;;6.90;2.60;;;;;;;24.11;51.27;100730.56;5073286;28;20076;-59
2022/10/17 11:17:24;;;;;;;4.43;2.55;;;;;;;24.20;51.03;100741.56;5086399;28;20847;-58
2022/10/17 11:20:00;;;;;;;3.80;2.30;;;;;;;23.98;51.26;100738.66;5081927;28;20509;-59
2022/10/17 11:22:32;;;;;;;4.47;2.28;;;;;;;24.12;51.82;100743.56;5088669;28;20052;-58
2022/10/17 11:25:04;;;;;;;5.47;2.50;;;;;;;23.84;52.68;100749.97;5080642;28;20393;-59
2022/10/17 11:27:34;;;;;;;5.03;2.67;;;;;;;23.86;52.47;100754.03;5078438;28;20627;-59
2022/10/17 11:30:02;;;;;;;6.53;2.65;;;;;;;23.87;52.10;100767.03;5080222;28;20048;-59
2022/10/17 11:32:36;;;;;;;5.07;2.75;;;;;;;23.57;52.97;100760.75;5080147;28;20057;-59
2022/10/17 11:35:06;;;;;;;4.85;2.67;;;;;;;23.74;52.84;100757.19;5044584;28;20064;-59
2022/10/17 11:37:39;;;;;;;4.40;2.97;;;;;;;23.67;52.86;100762.84;5052272;28;20052;-60
2022/10/17 11:40:16;;;;;;;7.72;3.03;;;;;;;23.60;53.20;100763.63;5042347;28;20075;-59
2022/10/17 11:42:51;;;;;;;5.13;2.80;;;;;;;23.59;53.20;100766.84;5060863;28;20127;-60